createdAt,value
2022-10-17T00:00:00.508Z,8.4
2022-10-17T00:05:00.462Z,8.4
2022-10-17T00:10:00.472Z,8.4
2022-10-17T00:15:00.223Z,8.4
2022-10-17T00:20:00.482Z,8.3
2022-10-17T00:25:00.492Z,8.3
2022-10-17T00:30:00.251Z,8.3
2022-10-17T00:35:00.449Z,8.2
2022-10-17T00:40:00.461Z,8.2
2022-10-17T00:45:00.512Z,8.1
2022-10-17T00:55:00.499Z,8.1
2022-10-17T01:00:00.495Z,8.1
2022-10-17T01:05:00.493Z,8.1
2022-10-17T01:10:00.473Z,8
2022-10-17T01:15:00.535Z,8
2022-10-17T01:20:00.262Z,8
2022-10-17T01:25:00.476Z,8
2022-10-17T01:30:00.441Z,7.9
2022-10-17T01:35:00.562Z,7.9
2022-10-17T01:40:00.517Z,7.9
2022-10-17T01:45:00.445Z,7.9
2022-10-17T01:50:00.524Z,7.9
2022-10-17T01:55:00.516Z,7.9
2022-10-17T02:00:00.236Z,7.9
2022-10-17T02:10:00.469Z,7.9
2022-10-17T02:15:00.443Z,7.9
2022-10-17T02:20:00.464Z,7.8
2022-10-17T02:25:00.503Z,8
2022-10-17T02:30:00.490Z,7.9
2022-10-17T02:35:00.464Z,8
2022-10-17T02:40:00.489Z,7.9
2022-10-17T02:45:00.430Z,7.9
2022-10-17T02:50:00.448Z,7.8
2022-10-17T02:55:00.480Z,7.8
2022-10-17T03:00:00.502Z,7.8
2022-10-17T03:05:00.475Z,7.8
2022-10-17T03:10:00.460Z,7.7
2022-10-17T03:15:00.461Z,7.7
2022-10-17T03:20:00.502Z,7.7
2022-10-17T03:25:00.582Z,7.7
2022-10-17T03:30:00.512Z,7.7
2022-10-17T03:35:00.518Z,7.6
2022-10-17T03:40:00.454Z,7.6
2022-10-17T03:45:00.524Z,7.5
2022-10-17T03:50:00.462Z,7.6
2022-10-17T03:55:00.514Z,7.5
2022-10-17T04:00:00.461Z,7.5
2022-10-17T04:05:00.481Z,7.4
2022-10-17T04:10:00.461Z,7.4
2022-10-17T04:15:00.241Z,7.4
2022-10-17T04:20:00.486Z,7.4
2022-10-17T04:25:00.448Z,7.3
2022-10-17T04:30:00.511Z,7.3
2022-10-17T04:35:00.465Z,7.3
2022-10-17T04:40:00.497Z,7.3
2022-10-17T04:45:00.180Z,7.3
2022-10-17T04:50:00.413Z,7.4
2022-10-17T04:55:00.508Z,7.3
2022-10-17T05:00:00.565Z,7.3
2022-10-17T05:05:00.524Z,7.2
2022-10-17T05:10:00.505Z,7.2
2022-10-17T05:15:00.462Z,7.3
2022-10-17T05:20:00.569Z,7.2
2022-10-17T05:25:00.434Z,7.2
2022-10-17T05:30:00.438Z,7.2
2022-10-17T05:35:00.520Z,7.1
2022-10-17T05:40:00.532Z,7.1
2022-10-17T05:45:00.615Z,7
2022-10-17T05:50:00.511Z,7
2022-10-17T05:55:00.479Z,7
2022-10-17T06:00:00.421Z,7
2022-10-17T06:05:00.450Z,7.1
2022-10-17T06:10:00.555Z,7.1
2022-10-17T06:15:00.517Z,7.1
2022-10-17T06:20:00.560Z,7.2
2022-10-17T06:25:00.445Z,7.2
2022-10-17T06:30:00.500Z,7.2
2022-10-17T06:35:00.504Z,7.2
2022-10-17T06:40:00.492Z,7.4
2022-10-17T06:45:00.465Z,7.4
2022-10-17T06:50:00.455Z,7.5
2022-10-17T06:55:00.548Z,7.6
2022-10-17T07:00:00.559Z,7.7
2022-10-17T07:05:00.423Z,7.8
2022-10-17T07:10:00.607Z,7.9
2022-10-17T07:15:00.511Z,8.1
2022-10-17T07:20:00.520Z,8.3
2022-10-17T07:25:00.542Z,8.5
2022-10-17T07:30:00.564Z,8.9
2022-10-17T07:35:00.596Z,9.4
2022-10-17T07:40:00.483Z,10
2022-10-17T07:45:00.476Z,10.3
2022-10-17T07:50:00.516Z,10.5
2022-10-17T07:55:00.603Z,10.7
2022-10-17T08:00:00.475Z,11.3
2022-10-17T08:05:00.499Z,11.3
2022-10-17T08:10:00.494Z,11.6
2022-10-17T08:15:00.594Z,11.6
2022-10-17T08:20:00.491Z,11.8
2022-10-17T08:25:00.488Z,11.9
2022-10-17T08:30:00.494Z,11.4
2022-10-17T08:35:00.433Z,11.3
2022-10-17T08:40:00.500Z,11.2
2022-10-17T08:45:00.474Z,11
2022-10-17T08:50:00.531Z,10.7
2022-10-17T08:55:00.506Z,11
2022-10-17T09:00:00.528Z,10.7
2022-10-17T09:05:00.549Z,10.8
2022-10-17T09:10:00.417Z,10.3
2022-10-17T09:15:00.424Z,10.5
2022-10-17T09:20:00.490Z,10.2
2022-10-17T09:25:00.505Z,10
2022-10-17T09:30:00.563Z,10.4
2022-10-17T09:35:00.540Z,10.4
2022-10-17T09:40:00.465Z,10.3
2022-10-17T09:45:00.528Z,10.2
2022-10-17T09:50:00.567Z,10.1
2022-10-17T09:55:00.572Z,10.2
2022-10-17T10:00:00.713Z,10.2
2022-10-17T10:05:04.894Z,10.1
2022-10-17T10:10:00.499Z,10.4
2022-10-17T10:15:00.491Z,10.3
2022-10-17T10:20:00.570Z,10.4
2022-10-17T10:25:00.480Z,10.4
2022-10-17T10:30:00.502Z,10.4
2022-10-17T10:35:00.466Z,10.5
2022-10-17T10:40:00.518Z,10.7
2022-10-17T10:45:00.561Z,10.7
2022-10-17T10:50:00.481Z,10.5
2022-10-17T10:55:00.527Z,10.4
2022-10-17T11:00:00.498Z,10.4
2022-10-17T11:05:00.489Z,10.5
2022-10-17T11:10:00.470Z,10.7
2022-10-17T11:15:00.450Z,10.7
2022-10-17T11:20:00.469Z,10.6
2022-10-17T11:25:00.498Z,10.8
2022-10-17T11:30:00.545Z,10.8
2022-10-17T11:35:00.555Z,10.7
2022-10-17T11:40:00.527Z,11
2022-10-17T11:45:00.573Z,11
2022-10-17T11:51:59.547Z,11
2022-10-17T11:55:00.467Z,11.1
2022-10-17T12:00:00.525Z,11.4
2022-10-17T12:05:00.482Z,11.5
2022-10-17T12:10:00.484Z,11.4
2022-10-17T12:15:00.563Z,11.4
2022-10-17T12:20:00.455Z,11.2
2022-10-17T12:25:00.497Z,11.2
2022-10-17T12:30:00.549Z,11.4
2022-10-17T12:35:01.172Z,11.7
2022-10-17T12:40:00.535Z,11.2
2022-10-17T12:45:00.531Z,11.4
2022-10-17T12:50:00.615Z,11.3
2022-10-17T12:55:11.313Z,11.3
2022-10-17T13:00:00.525Z,11.3
2022-10-17T13:05:00.486Z,11.2
2022-10-17T13:10:00.529Z,11
2022-10-17T13:15:00.521Z,11.3
2022-10-17T13:20:00.523Z,11.2
2022-10-17T13:25:00.596Z,11.2
2022-10-17T13:30:00.481Z,11.2
2022-10-17T13:35:00.501Z,11.3
2022-10-17T13:40:07.339Z,11.2
2022-10-17T13:45:00.503Z,11
2022-10-17T13:50:00.549Z,11.3
2022-10-17T13:55:00.512Z,10.9
2022-10-17T14:00:00.537Z,11
2022-10-17T14:05:17.547Z,11.3
2022-10-17T14:10:00.509Z,11.3
2022-10-17T14:15:11.111Z,11.3
2022-10-17T14:20:16.347Z,11.3
2022-10-17T14:25:02.555Z,11.2
2022-10-17T14:30:00.503Z,11.3
2022-10-17T14:35:16.529Z,12.1
2022-10-17T14:40:00.489Z,11.9
2022-10-17T14:45:00.541Z,12
2022-10-17T14:50:00.499Z,12.4
2022-10-17T14:55:00.476Z,12.4
2022-10-17T15:00:00.654Z,12
2022-10-17T15:05:00.510Z,12.2
2022-10-17T15:10:00.494Z,12.3
2022-10-17T15:15:00.524Z,12.3
2022-10-17T15:20:00.484Z,12.1
2022-10-17T15:25:00.504Z,12.2
2022-10-17T15:30:00.520Z,12.1
2022-10-17T15:35:00.518Z,12
2022-10-17T15:40:00.556Z,11.7
2022-10-17T15:45:00.522Z,11.7
2022-10-17T15:50:00.551Z,11.6
2022-10-17T15:55:02.407Z,11.5
2022-10-17T16:00:00.533Z,11.5
2022-10-17T16:05:00.530Z,11.3
2022-10-17T16:10:00.479Z,11.3
2022-10-17T16:15:00.507Z,11.4
2022-10-17T16:20:00.498Z,11.3
2022-10-17T16:25:00.457Z,11.2
2022-10-17T16:30:00.435Z,11.1
2022-10-17T16:35:00.466Z,11
2022-10-17T16:40:00.513Z,11
2022-10-17T16:45:00.495Z,10.9
2022-10-17T16:50:00.479Z,10.9
2022-10-17T16:55:00.420Z,10.9
2022-10-17T17:00:00.603Z,10.8
2022-10-17T17:05:00.484Z,10.8
2022-10-17T17:10:00.486Z,10.6
2022-10-17T17:15:00.470Z,10.6
2022-10-17T17:20:00.422Z,10.5
2022-10-17T17:25:00.484Z,10.5
2022-10-17T17:30:00.486Z,10.4
2022-10-17T17:35:00.522Z,10.4
2022-10-17T17:40:00.504Z,10.4
2022-10-17T17:45:00.490Z,10.3
2022-10-17T17:50:00.494Z,10.2
2022-10-17T17:55:00.467Z,10.3
2022-10-17T18:00:00.508Z,10.1
2022-10-17T18:05:00.504Z,10.1
2022-10-17T18:10:00.565Z,10.1
2022-10-17T18:15:00.500Z,10
2022-10-17T18:20:00.447Z,10
2022-10-17T18:25:00.533Z,10.1
2022-10-17T18:30:00.530Z,10
2022-10-17T18:35:00.498Z,9.9
2022-10-17T18:40:00.509Z,9.9
2022-10-17T18:45:00.527Z,9.8
2022-10-17T18:50:00.486Z,9.8
2022-10-17T18:55:00.468Z,9.7
2022-10-17T19:00:00.490Z,9.6
2022-10-17T19:05:00.484Z,9.6
2022-10-17T19:10:00.457Z,9.7
2022-10-17T19:15:00.548Z,9.8
2022-10-17T19:20:00.499Z,9.7
2022-10-17T19:25:00.507Z,9.7
2022-10-17T19:30:00.671Z,9.6
2022-10-17T19:35:00.506Z,9.5
2022-10-17T19:40:00.536Z,9.4
2022-10-17T19:45:00.536Z,9.4
2022-10-17T19:50:00.465Z,9.4
2022-10-17T19:55:00.513Z,9.3
2022-10-17T20:00:00.440Z,9.3
2022-10-17T20:05:17.397Z,9.3
2022-10-17T20:10:00.449Z,9.2
2022-10-17T20:15:00.451Z,9.2
2022-10-17T20:20:01.420Z,9.3
2022-10-17T20:25:00.410Z,9.2
2022-10-17T20:30:00.433Z,9.1
2022-10-17T20:35:00.430Z,9.1
2022-10-17T20:40:22.966Z,9.1
2022-10-17T20:45:00.384Z,9
2022-10-17T20:50:00.505Z,9
2022-10-17T20:55:00.440Z,9
2022-10-17T21:00:00.555Z,9
2022-10-17T21:05:00.484Z,9
2022-10-17T21:10:12.266Z,9
2022-10-17T21:15:00.446Z,9
2022-10-17T21:20:00.443Z,8.9
2022-10-17T21:25:00.501Z,8.9
2022-10-17T21:30:00.613Z,8.9
2022-10-17T21:35:00.470Z,8.9
2022-10-17T21:40:00.481Z,8.8
2022-10-17T21:45:00.529Z,8.8
2022-10-17T21:50:00.505Z,8.7
2022-10-17T21:55:00.499Z,8.7
2022-10-17T22:00:00.449Z,8.7
2022-10-17T22:05:00.504Z,8.7
2022-10-17T22:10:00.577Z,8.6
2022-10-17T22:15:00.494Z,8.6
2022-10-17T22:20:00.447Z,8.6
2022-10-17T22:25:00.513Z,8.6
2022-10-17T22:30:00.480Z,8.5
2022-10-17T22:35:00.471Z,8.6
2022-10-17T22:40:00.477Z,8.6
2022-10-17T22:45:00.416Z,8.6
2022-10-17T22:50:00.437Z,8.6
2022-10-17T22:55:00.499Z,8.6
2022-10-17T23:00:00.491Z,8.6
2022-10-17T23:05:00.452Z,8.5
2022-10-17T23:10:00.463Z,8.4
2022-10-17T23:15:00.468Z,8.4
2022-10-17T23:20:00.469Z,8.4
2022-10-17T23:25:00.457Z,8.3
2022-10-17T23:30:00.404Z,8.4
2022-10-17T23:35:00.492Z,8.4
2022-10-17T23:40:00.443Z,8.3
2022-10-17T23:45:00.417Z,8.4
2022-10-17T23:50:00.455Z,8.4
2022-10-17T23:55:00.466Z,8.4
